Time;durP1;ratioP1;P1;durP2;ratioP2;P2;SDS_P1;SDS_P2;PMS_P1;PMS_P2;Temp;Humidity;BMP_temperature;BMP_pressure;BME280_temperature;BME280_humidity;BME280_pressure;Samples;Min_cycle;Max_cycle;Signal;HPM_P1;HPM_P2
2022/10/06 00:01:25;;;;;;;1.02;0.75;;;14.20;78.50;;;;;;5087488;28;20526;-76
2022/10/06 00:03:52;;;;;;;2.65;1.27;;;14.20;78.60;;;;;;4982019;28;20103;-75
2022/10/06 00:06:18;;;;;;;2.17;1.27;;;14.20;78.60;;;;;;5002810;28;20083;-76
2022/10/06 00:08:45;;;;;;;2.83;1.23;;;14.20;78.50;;;;;;4999221;28;20039;-76
2022/10/06 00:11:12;;;;;;;1.30;1.00;;;14.20;78.50;;;;;;4999808;28;20068;-76
2022/10/06 00:13:38;;;;;;;2.13;1.17;;;14.20;78.50;;;;;;4987203;28;20092;-75
2022/10/06 00:16:10;;;;;;;1.20;0.90;;;14.20;78.50;;;;;;4997085;28;20035;-76
2022/10/06 00:18:36;;;;;;;1.15;0.82;;;14.20;78.40;;;;;;4999309;28;20042;-75
2022/10/06 00:21:03;;;;;;;1.20;1.00;;;14.20;78.50;;;;;;4982245;28;20088;-75
2022/10/06 00:23:29;;;;;;;1.10;1.00;;;14.20;78.50;;;;;;5000268;28;20077;-75
2022/10/06 00:25:55;;;;;;;1.05;0.95;;;14.20;78.40;;;;;;5001071;28;20121;-76
2022/10/06 00:28:21;;;;;;;2.25;1.10;;;14.20;78.40;;;;;;4999917;28;20022;-75
2022/10/06 00:30:47;;;;;;;2.53;1.00;;;14.20;78.40;;;;;;5000908;28;20035;-75
2022/10/06 00:33:15;;;;;;;1.77;0.75;;;14.20;78.50;;;;;;4999156;28;20034;-76
2022/10/06 00:35:42;;;;;;;0.85;0.77;;;14.20;78.60;;;;;;4998443;28;20061;-76
2022/10/06 00:38:11;;;;;;;0.65;0.65;;;14.20;78.60;;;;;;4998094;28;20046;-76
2022/10/06 00:40:49;;;;;;;1.30;1.10;;;14.20;78.60;;;;;;4989840;28;20110;-75
2022/10/06 00:43:40;;;;;;;0.85;0.70;;;14.20;78.50;;;;;;4983075;28;20046;-75
2022/10/06 00:46:31;;;;;;;1.52;0.93;;;14.20;78.50;;;;;;5082944;28;20087;-75
2022/10/06 00:49:12;;;;;;;2.28;0.80;;;14.20;78.40;;;;;;4997913;28;20072;-75
2022/10/06 00:51:42;;;;;;;0.77;0.77;;;14.20;78.40;;;;;;4980539;28;20435;-75
2022/10/06 00:54:09;;;;;;;0.80;0.80;;;14.20;78.30;;;;;;4983408;28;20096;-75
2022/10/06 00:56:38;;;;;;;1.08;0.80;;;14.20;78.40;;;;;;5000030;28;20038;-75
2022/10/06 00:59:08;;;;;;;0.85;0.80;;;14.20;78.30;;;;;;5082202;28;20122;-74
2022/10/06 01:01:35;;;;;;;0.88;0.85;;;14.20;78.40;;;;;;5067359;28;20451;-75
2022/10/06 01:04:08;;;;;;;1.73;0.90;;;14.20;78.40;;;;;;4982333;28;20045;-74
2022/10/06 01:07:00;;;;;;;1.05;0.70;;;14.20;78.30;;;;;;4985893;28;20046;-74
2022/10/06 01:09:28;;;;;;;1.65;1.05;;;14.20;78.50;;;;;;4982708;28;20133;-74
2022/10/06 01:11:57;;;;;;;1.25;0.70;;;14.20;78.50;;;;;;4983058;28;20494;-75
2022/10/06 01:14:24;;;;;;;0.80;0.80;;;14.20;78.50;;;;;;4998404;28;20041;-75
2022/10/06 01:16:58;;;;;;;0.98;0.80;;;14.20;78.40;;;;;;4998685;28;20537;-75
2022/10/06 01:19:52;;;;;;;1.10;0.70;;;14.20;78.40;;;;;;4987143;28;20036;-75
2022/10/06 01:22:39;;;;;;;0.80;0.77;;;14.20;78.40;;;;;;5082483;28;20045;-75
2022/10/06 01:25:08;;;;;;;0.75;0.75;;;14.20;78.20;;;;;;4981535;28;20061;-75
2022/10/06 01:27:37;;;;;;;0.68;0.68;;;14.20;78.20;;;;;;4982065;28;20038;-75
2022/10/06 01:30:07;;;;;;;1.20;0.88;;;14.20;78.20;;;;;;5045887;28;20592;-75
2022/10/06 01:32:36;;;;;;;1.48;1.08;;;14.20;78.30;;;;;;4983231;28;20030;-74
2022/10/06 01:35:04;;;;;;;0.88;0.80;;;14.20;78.30;;;;;;5082436;28;20669;-75
2022/10/06 01:37:30;;;;;;;0.77;0.77;;;14.20;78.30;;;;;;4998139;28;20022;-75
2022/10/06 01:39:56;;;;;;;0.70;0.70;;;14.20;78.30;;;;;;4987838;28;20046;-74
2022/10/06 01:42:23;;;;;;;1.00;0.65;;;14.20;78.30;;;;;;4987201;28;20817;-74
2022/10/06 01:44:49;;;;;;;0.80;0.80;;;14.20;78.30;;;;;;4983231;28;20045;-74
2022/10/06 01:47:15;;;;;;;0.93;0.80;;;14.20;78.30;;;;;;4987691;28;20033;-74
2022/10/06 01:49:41;;;;;;;0.80;0.80;;;14.20;78.30;;;;;;5000529;28;20059;-74
2022/10/06 01:52:08;;;;;;;0.85;0.85;;;14.20;78.30;;;;;;4983498;28;20035;-74
2022/10/06 01:54:34;;;;;;;1.75;0.95;;;14.20;78.30;;;;;;4984200;28;20030;-74
2022/10/06 01:57:01;;;;;;;1.23;0.98;;;14.20;78.40;;;;;;5002695;28;20030;-75
2022/10/06 01:59:27;;;;;;;1.45;0.80;;;14.20;78.40;;;;;;4985049;28;20427;-75
2022/10/06 02:01:52;;;;;;;1.08;0.82;;;14.20;79.00;;;;;;4985283;28;20073;-75
2022/10/06 02:04:19;;;;;;;0.95;0.90;;;14.20;78.40;;;;;;4984479;28;20116;-75
2022/10/06 02:06:45;;;;;;;1.05;0.80;;;14.20;78.40;;;;;;5003079;28;20040;-75
2022/10/06 02:09:12;;;;;;;1.33;1.00;;;14.20;78.50;;;;;;5068696;28;20037;-75
2022/10/06 02:11:39;;;;;;;0.85;0.85;;;14.20;78.50;;;;;;4967729;28;20160;-76
2022/10/06 02:14:06;;;;;;;1.60;0.80;;;14.20;78.50;;;;;;4987144;28;20468;-75
2022/10/06 02:16:32;;;;;;;0.98;0.90;;;14.20;78.40;;;;;;4985800;28;20033;-75
2022/10/06 02:18:58;;;;;;;1.20;1.10;;;14.20;78.50;;;;;;4985083;28;20035;-75
2022/10/06 02:21:24;;;;;;;1.20;1.00;;;14.20;78.60;;;;;;4968071;28;20050;-74
2022/10/06 02:23:50;;;;;;;1.10;0.98;;;14.20;78.60;;;;;;5085964;28;20041;-75
2022/10/06 02:26:17;;;;;;;0.82;0.82;;;14.20;78.60;;;;;;4988324;28;20462;-75
2022/10/06 02:28:45;;;;;;;1.33;1.17;;;14.20;78.60;;;;;;5086340;28;20038;-75
2022/10/06 02:31:13;;;;;;;0.93;0.90;;;14.20;78.60;;;;;;4985798;28;20054;-75
2022/10/06 02:33:40;;;;;;;1.42;1.00;;;14.20;78.60;;;;;;4982947;28;20037;-74
2022/10/06 02:36:09;;;;;;;0.70;0.70;;;14.20;78.60;;;;;;4998808;28;20038;-74
2022/10/06 02:38:36;;;;;;;2.00;1.20;;;14.20;78.60;;;;;;5001839;28;20082;-74
2022/10/06 02:41:06;;;;;;;1.23;1.00;;;14.20;78.60;;;;;;4992959;28;20509;-75
2022/10/06 02:43:34;;;;;;;1.88;1.30;;;14.20;78.60;;;;;;4962109;28;20053;-75
2022/10/06 02:46:21;;;;;;;1.75;1.05;;;14.20;78.60;;;;;;4974618;28;20035;-75
2022/10/06 02:48:50;;;;;;;1.00;1.00;;;14.20;78.60;;;;;;4974974;28;20428;-75
2022/10/06 02:51:19;;;;;;;0.82;0.82;;;14.20;78.50;;;;;;4975593;28;20960;-75
2022/10/06 02:53:49;;;;;;;1.75;1.08;;;14.20;78.50;;;;;;4978136;28;20073;-75
2022/10/06 02:56:21;;;;;;;1.05;1.00;;;14.20;78.50;;;;;;4948817;28;20054;-75
2022/10/06 02:58:47;;;;;;;1.85;1.15;;;14.20;78.50;;;;;;4961018;28;20046;-75
2022/10/06 03:01:22;;;;;;;1.05;0.95;;;14.20;78.50;;;;;;4978142;28;20066;-75
2022/10/06 03:03:51;;;;;;;1.15;0.98;;;14.20;78.40;;;;;;4962503;28;20062;-74
2022/10/06 03:06:22;;;;;;;1.73;1.00;;;14.20;78.50;;;;;;4963813;28;20035;-75
2022/10/06 03:09:11;;;;;;;1.25;1.00;;;14.20;78.50;;;;;;4961254;28;20035;-75
2022/10/06 03:11:42;;;;;;;1.00;1.00;;;14.20;78.50;;;;;;4959503;28;20096;-75
2022/10/06 03:14:10;;;;;;;0.95;0.90;;;14.20;78.50;;;;;;4963836;28;20096;-75
2022/10/06 03:16:39;;;;;;;1.73;0.88;;;14.20;78.50;;;;;;4948226;28;20516;-75
2022/10/06 03:19:09;;;;;;;1.48;0.95;;;14.20;79.00;;;;;;4976544;28;20050;-75
2022/10/06 03:21:39;;;;;;;1.77;1.00;;;14.20;78.50;;;;;;4974911;28;20046;-75
2022/10/06 03:24:05;;;;;;;1.50;1.02;;;14.20;78.30;;;;;;4964589;28;20046;-75
2022/10/06 03:26:33;;;;;;;1.42;1.00;;;14.20;78.30;;;;;;4976392;28;20457;-75
2022/10/06 03:28:59;;;;;;;1.20;1.00;;;14.20;78.30;;;;;;4961854;28;20038;-74
2022/10/06 03:31:26;;;;;;;1.17;0.90;;;14.20;78.30;;;;;;4964542;28;20027;-75
2022/10/06 03:33:54;;;;;;;1.27;1.00;;;14.20;78.20;;;;;;4976640;28;20031;-75
2022/10/06 03:36:22;;;;;;;0.75;0.70;;;14.20;78.20;;;;;;4958302;28;20093;-75
2022/10/06 03:38:49;;;;;;;0.70;0.70;;;14.20;78.20;;;;;;4964713;28;20096;-75
2022/10/06 03:41:16;;;;;;;1.27;0.90;;;14.20;78.20;;;;;;4991888;28;20042;-75
2022/10/06 03:43:43;;;;;;;0.70;0.70;;;14.20;78.20;;;;;;4995263;28;20042;-78
2022/10/06 03:46:12;;;;;;;0.80;0.80;;;14.20;78.10;;;;;;4996555;28;20035;-77
2022/10/06 03:48:39;;;;;;;1.25;0.82;;;14.20;78.20;;;;;;4981033;28;20378;-74
2022/10/06 03:51:14;;;;;;;2.67;0.85;;;14.20;78.30;;;;;;4980531;28;20042;-73
2022/10/06 03:53:44;;;;;;;0.82;0.82;;;14.30;78.30;;;;;;4996254;28;20043;-73
2022/10/06 03:56:25;;;;;;;0.80;0.80;;;14.20;78.20;;;;;;4980248;28;20038;-72
2022/10/06 03:59:03;;;;;;;0.70;0.70;;;14.30;78.20;;;;;;4993854;28;20042;-72
2022/10/06 04:01:34;;;;;;;1.20;0.98;;;14.30;78.40;;;;;;4982642;28;20042;-77
2022/10/06 04:04:04;;;;;;;2.75;1.08;;;14.30;78.50;;;;;;4994324;28;20034;-76
2022/10/06 04:06:32;;;;;;;1.23;1.05;;;14.30;78.50;;;;;;4997038;28;20403;-76
2022/10/06 04:08:59;;;;;;;0.90;0.90;;;14.30;78.60;;;;;;4967401;28;20501;-79
2022/10/06 04:11:32;;;;;;;1.63;1.25;;;14.30;78.70;;;;;;4996220;28;20038;-76
2022/10/06 04:14:01;;;;;;;1.23;0.90;;;14.30;78.60;;;;;;4977688;28;20042;-78
2022/10/06 04:16:37;;;;;;;2.22;1.25;;;14.30;78.50;;;;;;4980275;28;20103;-75
2022/10/06 04:19:05;;;;;;;;;;;14.30;78.50;;;;;;4995847;28;20043;-75
2022/10/06 04:21:37;;;;;;;1.13;1.00;;;14.30;78.50;;;;;;4994962;28;20327;-75
2022/10/06 04:24:05;;;;;;;1.85;1.30;;;14.40;78.40;;;;;;4993775;28;20035;-75
2022/10/06 04:26:35;;;;;;;2.17;1.70;;;14.30;78.30;;;;;;4996896;28;20034;-75
2022/10/06 04:29:01;;;;;;;2.75;1.13;;;14.30;78.30;;;;;;4982987;28;20466;-74
2022/10/06 04:31:33;;;;;;;1.30;1.20;;;14.30;78.40;;;;;;4996720;28;20469;-73
2022/10/06 04:34:00;;;;;;;1.98;1.23;;;14.30;78.50;;;;;;4978357;28;20126;-73
2022/10/06 04:36:33;;;;;;;1.80;1.70;;;14.30;78.40;;;;;;4979025;28;20084;-72
2022/10/06 04:39:02;;;;;;;2.58;1.92;;;14.30;78.30;;;;;;4985794;28;20066;-71
2022/10/06 04:41:32;;;;;;;2.63;1.60;;;14.20;78.10;;;;;;5054468;28;20049;-75
2022/10/06 04:43:59;;;;;;;3.22;1.80;;;14.20;78.10;;;;;;5069207;28;20036;-73
2022/10/06 04:46:26;;;;;;;2.78;1.75;;;14.20;78.20;;;;;;5052108;28;20098;-74
2022/10/06 04:48:54;;;;;;;2.50;1.70;;;14.10;78.20;;;;;;5085146;28;20086;-73
2022/10/06 04:51:25;;;;;;;2.50;2.05;;;14.10;78.30;;;;;;5084756;28;20527;-71
2022/10/06 04:53:51;;;;;;;3.58;1.90;;;14.10;78.40;;;;;;5080786;28;20032;-70
2022/10/06 04:56:24;;;;;;;2.47;2.28;;;14.10;78.50;;;;;;5062217;28;20093;-70
2022/10/06 04:58:52;;;;;;;2.33;2.13;;;14.10;78.40;;;;;;5076369;28;20098;-70
2022/10/06 05:01:24;;;;;;;3.50;2.00;;;14.10;78.40;;;;;;5074137;28;20028;-70
2022/10/06 05:03:54;;;;;;;3.58;2.45;;;14.10;78.40;;;;;;5059540;28;20032;-70
2022/10/06 05:06:32;;;;;;;2.30;2.10;;;14.10;78.40;;;;;;5076971;28;20373;-70
2022/10/06 05:09:01;;;;;;;2.47;2.28;;;14.00;78.40;;;;;;5077400;28;20033;-70
2022/10/06 05:11:28;;;;;;;2.75;2.50;;;14.00;78.60;;;;;;5074480;28;20068;-70
2022/10/06 05:13:56;;;;;;;3.95;2.33;;;14.00;78.70;;;;;;5060745;28;20028;-70
2022/10/06 05:16:26;;;;;;;2.78;2.35;;;14.00;78.90;;;;;;5075771;28;20501;-70
2022/10/06 05:18:52;;;;;;;2.42;2.13;;;14.00;78.90;;;;;;5078226;28;20032;-70
2022/10/06 05:21:24;;;;;;;2.92;2.45;;;14.00;78.80;;;;;;5059085;28;20042;-70
2022/10/06 05:23:51;;;;;;;2.63;2.40;;;14.00;78.90;;;;;;5063320;28;20032;-69
2022/10/06 05:26:19;;;;;;;2.60;2.30;;;14.00;78.80;;;;;;5062710;28;20044;-70
2022/10/06 05:28:46;;;;;;;2.42;2.20;;;14.00;79.00;;;;;;5063748;28;20106;-70
2022/10/06 05:31:33;;;;;;;2.60;2.40;;;14.00;79.10;;;;;;5057719;28;20037;-69
2022/10/06 05:34:02;;;;;;;2.92;2.67;;;14.00;79.00;;;;;;5063769;28;20442;-70
2022/10/06 05:36:29;;;;;;;2.92;2.65;;;14.00;79.00;;;;;;5058430;28;20032;-70
2022/10/06 05:38:57;;;;;;;4.55;3.13;;;14.00;79.10;;;;;;5060470;28;20174;-70
2022/10/06 05:41:29;;;;;;;4.22;3.15;;;14.00;78.90;;;;;;4998440;28;20049;-70
2022/10/06 05:43:57;;;;;;;6.53;3.10;;;14.00;78.90;;;;;;4978642;28;20068;-70
2022/10/06 05:46:27;;;;;;;4.45;3.22;;;14.10;78.90;;;;;;4980138;28;20512;-70
2022/10/06 05:48:57;;;;;;;3.58;3.15;;;14.10;79.10;;;;;;4977758;28;20455;-71
2022/10/06 05:51:28;;;;;;;5.85;3.50;;;14.10;79.70;;;;;;4965920;28;20129;-70
2022/10/06 05:53:54;;;;;;;4.70;3.05;;;14.10;80.60;;;;;;4991866;28;20600;-70
2022/10/06 05:56:28;;;;;;;5.68;3.30;;;14.20;81.00;;;;;;4992823;28;20548;-70
2022/10/06 05:58:56;;;;;;;3.88;3.40;;;14.20;81.00;;;;;;4993477;28;20034;-70
2022/10/06 06:01:36;;;;;;;3.85;3.50;;;14.30;81.20;;;;;;4977119;28;20504;-70
2022/10/06 06:04:09;;;;;;;5.30;3.67;;;14.30;81.00;;;;;;4982224;28;20184;-70
2022/10/06 06:06:43;;;;;;;7.13;3.95;;;14.30;80.90;;;;;;4993846;28;20031;-70
2022/10/06 06:09:21;;;;;;;5.80;4.30;;;14.40;80.90;;;;;;4964764;28;20045;-73
2022/10/06 06:11:52;;;;;;;5.93;3.88;;;14.40;81.20;;;;;;4977030;28;20585;-71
2022/10/06 06:17:33;;;;;;;4.57;3.72;;;14.50;81.10;;;;;;4992602;28;20037;-72
2022/10/06 06:20:00;;;;;;;5.38;4.13;;;14.50;81.20;;;;;;4993533;28;20122;-72
2022/10/06 06:22:27;;;;;;;7.03;3.67;;;14.50;81.20;;;;;;4979745;28;20132;-71
2022/10/06 06:24:53;;;;;;;6.57;3.88;;;14.50;81.20;;;;;;4966418;28;20177;-72
2022/10/06 06:27:19;;;;;;;4.70;3.65;;;14.50;81.20;;;;;;4981668;28;20113;-72
2022/10/06 06:29:46;;;;;;;4.80;4.20;;;14.50;81.20;;;;;;4991978;28;20043;-72
2022/10/06 06:32:12;;;;;;;5.55;3.90;;;14.60;81.10;;;;;;4981880;28;20041;-72
2022/10/06 06:34:39;;;;;;;7.65;4.10;;;14.60;81.00;;;;;;4981841;28;20113;-72
2022/10/06 06:37:08;;;;;;;3.95;3.55;;;14.60;81.20;;;;;;4992674;28;20069;-72
2022/10/06 06:39:35;;;;;;;5.32;4.22;;;14.70;81.10;;;;;;5000999;28;20397;-72
2022/10/06 06:42:01;;;;;;;7.85;4.07;;;14.70;80.90;;;;;;4983885;28;20121;-72
2022/10/06 06:44:45;;;;;;;7.82;4.30;;;14.70;80.80;;;;;;4984193;28;20037;-71
2022/10/06 06:47:20;;;;;;;6.07;4.05;;;14.70;80.70;;;;;;4999870;28;20034;-71
2022/10/06 06:49:46;;;;;;;5.82;4.28;;;14.80;80.70;;;;;;5000931;28;20037;-71
2022/10/06 06:52:12;;;;;;;4.70;4.20;;;14.80;80.50;;;;;;5001080;28;20408;-72
2022/10/06 06:54:40;;;;;;;6.55;4.22;;;14.80;80.40;;;;;;4986758;28;20576;-71
2022/10/06 06:57:12;;;;;;;5.20;4.20;;;14.90;80.20;;;;;;4983823;28;20232;-72
2022/10/06 06:59:38;;;;;;;4.93;4.28;;;14.90;80.00;;;;;;4999121;28;20457;-71
2022/10/06 07:02:08;;;;;;;5.57;4.43;;;14.90;80.10;;;;;;4982821;28;20041;-72
2022/10/06 07:04:37;;;;;;;5.40;4.43;;;14.90;79.90;;;;;;5016859;27;20056;-72
2022/10/06 07:07:05;;;;;;;7.53;4.85;;;14.90;80.00;;;;;;4983706;28;20066;-72
2022/10/06 07:09:35;;;;;;;8.55;5.38;;;14.90;79.90;;;;;;5002138;28;20034;-72
2022/10/06 07:12:04;;;;;;;21.00;11.93;;;15.00;80.10;;;;;;4968023;28;20511;-72
2022/10/06 07:14:31;;;;;;;13.50;8.55;;;15.00;80.10;;;;;;4984928;28;20038;-72
2022/10/06 07:25:31;;;;;;;6.22;4.20;;;15.10;79.80;;;;;;4998313;28;20685;-73
2022/10/06 07:28:02;;;;;;;6.50;4.47;;;15.20;79.70;;;;;;4998301;28;20559;-72
2022/10/06 07:30:32;;;;;;;6.93;4.38;;;15.20;79.70;;;;;;4982089;28;20042;-73
2022/10/06 07:33:03;;;;;;;5.75;3.97;;;15.20;79.60;;;;;;5000310;28;20512;-73
2022/10/06 07:35:30;;;;;;;7.40;4.63;;;15.30;79.60;;;;;;4983217;28;20037;-73
2022/10/06 07:38:01;;;;;;;7.10;4.13;;;15.30;79.60;;;;;;4998355;28;20565;-74
2022/10/06 07:40:28;;;;;;;4.70;3.72;;;15.30;79.60;;;;;;5000686;28;20058;-73
2022/10/06 07:42:54;;;;;;;6.28;4.22;;;15.40;79.40;;;;;;4996776;28;20095;-73
2022/10/06 07:45:39;;;;;;;4.85;3.70;;;15.40;79.20;;;;;;5001654;28;20318;-73
2022/10/06 07:48:13;;;;;;;;;;;15.40;79.20;;;;;;5087112;28;20112;-73
2022/10/06 07:50:41;;;;;;;5.68;3.90;;;15.40;79.00;;;;;;5017031;27;20409;-73
2022/10/06 07:53:10;;;;;;;4.57;4.00;;;15.40;78.90;;;;;;4999351;28;20037;-73
2022/10/06 07:55:45;;;;;;;6.55;3.60;;;15.50;79.00;;;;;;4998750;28;20086;-73
2022/10/06 07:58:22;;;;;;;4.25;3.85;;;15.50;79.30;;;;;;4998862;28;20033;-74
2022/10/06 08:00:51;;;;;;;4.22;3.80;;;15.50;79.00;;;;;;5000774;28;20504;-73
2022/10/06 08:03:17;;;;;;;5.30;3.65;;;15.50;79.00;;;;;;4999387;28;20064;-73
2022/10/06 08:05:45;;;;;;;5.65;4.30;;;15.50;79.20;;;;;;4982816;28;20038;-72
2022/10/06 08:08:11;;;;;;;6.05;4.18;;;15.60;79.50;;;;;;5000585;28;20042;-73
2022/10/06 08:10:37;;;;;;;4.18;3.78;;;15.60;79.50;;;;;;4999007;28;20042;-73
2022/10/06 08:13:06;;;;;;;5.32;3.85;;;15.60;79.40;;;;;;4999824;28;20035;-73
2022/10/06 08:15:33;;;;;;;5.13;3.83;;;15.60;79.30;;;;;;4999360;28;20193;-73
2022/10/06 08:18:00;;;;;;;7.40;4.25;;;15.70;79.40;;;;;;4999851;28;20034;-73
2022/10/06 08:20:26;;;;;;;5.20;4.00;;;15.70;79.30;;;;;;5000156;28;20041;-73
2022/10/06 08:22:53;;;;;;;5.93;4.20;;;15.70;79.80;;;;;;5000169;28;20129;-72
2022/10/06 08:25:19;;;;;;;7.32;4.35;;;15.80;79.30;;;;;;4999284;28;20103;-72
2022/10/06 08:27:45;;;;;;;5.47;3.97;;;15.80;79.10;;;;;;5000751;28;20061;-72
2022/10/06 08:30:12;;;;;;;7.25;4.22;;;15.80;79.70;;;;;;5000237;28;20199;-73
2022/10/06 08:32:41;;;;;;;6.20;4.13;;;15.80;79.10;;;;;;4970272;28;20030;-73
2022/10/06 08:35:10;;;;;;;5.55;3.65;;;15.80;79.20;;;;;;4998687;28;20538;-73
2022/10/06 08:37:36;;;;;;;5.45;4.00;;;15.80;79.20;;;;;;4994206;28;20466;-73
2022/10/06 08:40:03;;;;;;;15.95;11.00;;;15.80;79.00;;;;;;5001997;28;20073;-72
2022/10/06 08:42:40;;;;;;;17.00;10.75;;;15.80;78.90;;;;;;5000278;28;20033;-73
2022/10/06 08:45:14;;;;;;;9.50;6.75;;;15.80;79.00;;;;;;5079044;28;20090;-73
2022/10/06 08:47:51;;;;;;;10.25;4.43;;;15.90;79.10;;;;;;5001763;28;20040;-72
2022/10/06 08:50:20;;;;;;;6.03;4.80;;;15.90;79.10;;;;;;5007586;28;20543;-72
2022/10/06 08:52:58;;;;;;;6.95;4.10;;;15.90;78.80;;;;;;5002984;28;20044;-72
2022/10/06 08:55:51;;;;;;;6.35;3.80;;;15.90;79.00;;;;;;5000347;28;20499;-72
2022/10/06 08:58:37;;;;;;;4.15;3.33;;;15.90;79.00;;;;;;5000789;28;20057;-79
2022/10/06 09:01:22;;;;;;;;;;;15.90;79.00;;;;;;5000798;28;20113;-73
2022/10/06 09:03:55;;;;;;;5.75;3.47;;;15.90;78.80;;;;;;4998355;28;19917;-72
2022/10/06 09:06:53;;;;;;;6.82;4.57;;;15.90;78.80;;;;;;4998743;28;20038;-73
2022/10/06 09:09:42;;;;;;;6.07;3.90;;;15.90;78.90;;;;;;4999205;28;20034;-73
2022/10/06 09:12:26;;;;;;;4.80;3.40;;;15.90;79.50;;;;;;4982416;28;20565;-73
2022/10/06 09:15:08;;;;;;;5.18;3.72;;;15.80;79.00;;;;;;5000409;28;20095;-73
2022/10/06 09:17:39;;;;;;;4.50;3.80;;;15.90;79.10;;;;;;4998434;28;20045;-72
2022/10/06 09:20:26;;;;;;;5.63;3.13;;;15.90;79.20;;;;;;5081231;28;20033;-72
2022/10/06 09:22:55;;;;;;;4.57;3.55;;;15.90;79.20;;;;;;5036035;28;20029;-72
2022/10/06 09:25:26;;;;;;;4.95;3.50;;;15.80;78.90;;;;;;5019941;28;20131;-72
2022/10/06 09:27:54;;;;;;;3.03;2.72;;;15.90;79.00;;;;;;5036966;28;20460;-72
2022/10/06 09:30:21;;;;;;;4.90;3.53;;;15.90;79.00;;;;;;5035847;28;20443;-72
2022/10/06 09:32:53;;;;;;;3.67;2.83;;;15.80;79.00;;;;;;5037678;28;20033;-72
2022/10/06 09:35:24;;;;;;;4.25;3.50;;;15.90;79.20;;;;;;5037317;28;20063;-72
2022/10/06 09:38:02;;;;;;;4.10;3.45;;;15.90;79.20;;;;;;5039203;28;20033;-73
2022/10/06 09:40:38;;;;;;;4.32;3.20;;;15.90;79.20;;;;;;5036957;28;20466;-73
2022/10/06 09:43:27;;;;;;;5.13;3.40;;;15.90;79.40;;;;;;5038624;28;20040;-73
2022/10/06 09:46:19;;;;;;;4.97;3.65;;;15.90;79.40;;;;;;5009090;28;20033;-72
2022/10/06 09:48:45;;;;;;;6.38;3.10;;;15.90;79.40;;;;;;5038503;28;20137;-72
2022/10/06 09:51:16;;;;;;;4.00;3.35;;;15.90;79.30;;;;;;5037514;28;20505;-73
2022/10/06 09:53:53;;;;;;;4.50;3.63;;;15.90;79.20;;;;;;5038769;28;20136;-73
2022/10/06 09:56:20;;;;;;;3.75;3.20;;;15.90;79.30;;;;;;5020738;28;20084;-73
2022/10/06 09:58:55;;;;;;;3.40;3.10;;;15.90;79.40;;;;;;5037563;28;20037;-72
2022/10/06 10:01:26;;;;;;;4.45;3.35;;;15.90;79.30;;;;;;4983051;28;20062;-73
2022/10/06 10:03:59;;;;;;;4.20;3.40;;;16.00;79.30;;;;;;4979528;28;20456;-73
2022/10/06 10:06:33;;;;;;;3.95;3.25;;;15.90;79.20;;;;;;4978189;28;20121;-73
2022/10/06 10:09:27;;;;;;;4.35;3.42;;;16.00;79.40;;;;;;4980683;28;20031;-73
2022/10/06 10:14:44;;;;;;;4.47;3.53;;;15.90;79.30;;;;;;4982735;28;20045;-73
2022/10/06 10:17:38;;;;;;;6.53;3.33;;;15.90;79.20;;;;;;4982307;28;20050;-73
2022/10/06 10:20:26;;;;;;;4.63;3.35;;;15.90;79.40;;;;;;4983558;28;20043;-73
2022/10/06 10:22:55;;;;;;;4.32;2.97;;;16.00;79.40;;;;;;4983897;28;20061;-73
2022/10/06 10:26:34;;;;;;;4.63;3.53;;;16.00;79.20;;;;;;4968961;28;20096;-73
2022/10/06 10:29:36;;;;;;;4.65;3.80;;;16.00;79.40;;;;;;4975868;28;20038;-73
2022/10/06 10:32:36;;;;;;;5.32;3.47;;;16.10;79.50;;;;;;4976679;28;20050;-72
2022/10/06 10:35:12;;;;;;;4.43;3.53;;;16.10;79.40;;;;;;4975464;28;20117;-73
2022/10/06 10:37:57;;;;;;;3.13;2.83;;;16.10;79.40;;;;;;4960113;28;20444;-73
2022/10/06 10:40:26;;;;;;;5.97;3.15;;;16.10;79.40;;;;;;4944292;28;20242;-73
2022/10/06 10:43:21;;;;;;;3.42;3.13;;;16.20;79.40;;;;;;4960617;28;20042;-73
2022/10/06 10:45:57;;;;;;;3.95;3.20;;;16.20;79.50;;;;;;4976086;28;20097;-73
2022/10/06 10:48:56;;;;;;;4.13;2.80;;;16.20;79.30;;;;;;4959787;28;20039;-73
2022/10/06 10:51:27;;;;;;;5.07;3.05;;;16.30;79.50;;;;;;4958925;28;20038;-72
2022/10/06 10:54:04;;;;;;;5.70;3.22;;;16.30;79.20;;;;;;4975865;28;20030;-72
2022/10/06 10:56:32;;;;;;;4.15;2.83;;;16.40;79.00;;;;;;4975542;28;20058;-72
2022/10/06 10:59:39;;;;;;;4.63;2.75;;;16.40;79.00;;;;;;4997397;28;20045;-74
2022/10/06 11:02:15;;;;;;;5.13;3.15;;;16.40;79.00;;;;;;5029416;28;20026;-73
2022/10/06 11:04:46;;;;;;;2.67;2.47;;;16.50;79.50;;;;;;4981164;28;20037;-73
2022/10/06 11:07:30;;;;;;;3.97;2.95;;;16.50;78.80;;;;;;4979752;28;20046;-73
2022/10/06 11:09:57;;;;;;;3.95;3.10;;;16.50;78.50;;;;;;4981747;28;20559;-72
2022/10/06 11:12:39;;;;;;;4.60;3.72;;;16.50;78.40;;;;;;4982527;28;20039;-72
2022/10/06 11:15:17;;;;;;;4.32;3.45;;;16.50;78.40;;;;;;4981187;28;20038;-72
2022/10/06 11:17:45;;;;;;;3.33;2.97;;;16.60;78.50;;;;;;4980645;28;20031;-72
2022/10/06 11:20:35;;;;;;;7.07;3.20;;;16.60;78.50;;;;;;4995162;28;20044;-72
2022/10/06 11:23:13;;;;;;;3.47;3.17;;;16.60;78.50;;;;;;4982342;28;20037;-72
2022/10/06 11:25:52;;;;;;;5.00;3.55;;;16.70;78.50;;;;;;4998140;28;20076;-72
2022/10/06 11:28:26;;;;;;;3.65;3.30;;;16.60;78.40;;;;;;4980668;28;20042;-73
2022/10/06 11:30:59;;;;;;;5.93;3.55;;;16.70;78.50;;;;;;4983565;28;20038;-72
2022/10/06 11:33:33;;;;;;;5.22;3.67;;;16.70;78.30;;;;;;4980442;28;20432;-72
2022/10/06 11:36:02;;;;;;;5.95;4.18;;;16.70;78.30;;;;;;4980366;28;20205;-73
2022/10/06 11:38:41;;;;;;;4.32;3.53;;;16.70;78.40;;;;;;4979796;28;20039;-72
2022/10/06 11:41:31;;;;;;;5.05;3.72;;;16.70;78.50;;;;;;4997851;28;20134;-71
2022/10/06 11:44:06;;;;;;;3.67;3.22;;;16.70;79.00;;;;;;4983680;28;20084;-72
2022/10/06 11:46:35;;;;;;;3.63;3.20;;;16.60;78.40;;;;;;4981163;28;20381;-72
2022/10/06 11:49:30;;;;;;;3.72;3.20;;;16.70;78.50;;;;;;4966588;28;20042;-72
2022/10/06 11:52:05;;;;;;;4.45;3.45;;;16.70;78.60;;;;;;4989519;28;20038;-72
2022/10/06 11:54:51;;;;;;;4.27;3.23;;;16.60;78.60;;;;;;4989127;28;20034;-73
2022/10/06 11:57:23;;;;;;;4.60;3.42;;;16.70;78.50;;;;;;4988457;28;20038;-72
2022/10/06 12:00:15;;;;;;;4.22;3.70;;;16.70;78.50;;;;;;4997239;28;20031;-73
2022/10/06 12:02:43;;;;;;;5.88;3.85;;;16.70;79.30;;;;;;4989093;28;20042;-72
2022/10/06 12:05:09;;;;;;;5.18;3.95;;;16.70;78.70;;;;;;4987007;28;20057;-73
2022/10/06 12:08:10;;;;;;;6.97;3.97;;;16.70;78.40;;;;;;4988645;28;20065;-73
2022/10/06 12:10:48;;;;;;;5.13;4.50;;;16.70;78.60;;;;;;4989145;28;20071;-72
2022/10/06 12:13:22;;;;;;;7.00;4.30;;;16.70;78.60;;;;;;4984853;28;20831;-73
2022/10/06 12:16:00;;;;;;;6.73;4.40;;;16.70;78.70;;;;;;4985616;28;20079;-72
2022/10/06 12:18:50;;;;;;;6.85;4.05;;;16.70;78.70;;;;;;4980181;28;20039;-73
2022/10/06 12:21:52;;;;;;;6.05;3.75;;;16.70;78.50;;;;;;4979630;28;20067;-73
2022/10/06 12:24:44;;;;;;;7.03;4.65;;;16.70;78.60;;;;;;4981101;28;20412;-73
2022/10/06 12:27:22;;;;;;;5.45;4.63;;;16.70;78.50;;;;;;4994190;28;20030;-73
2022/10/06 12:30:09;;;;;;;6.35;4.60;;;16.70;78.50;;;;;;4980201;28;20046;-72
2022/10/06 12:32:47;;;;;;;8.90;4.70;;;16.70;78.50;;;;;;4980574;28;20050;-77
2022/10/06 12:35:23;;;;;;;4.68;3.38;;;16.70;79.50;;;;;;4981839;28;20058;-74
2022/10/06 12:37:51;;;;;;;5.90;3.72;;;16.80;82.10;;;;;;4989425;28;20118;-73
2022/10/06 12:40:45;;;;;;;6.78;4.70;;;16.90;80.90;;;;;;4998494;28;20065;-74
2022/10/06 12:43:13;;;;;;;7.00;4.75;;;16.90;80.10;;;;;;5004004;28;20046;-74
2022/10/06 12:45:43;;;;;;;8.45;5.00;;;17.00;79.50;;;;;;5008236;28;20033;-74
2022/10/06 12:48:25;;;;;;;7.75;4.88;;;17.00;79.20;;;;;;5005167;28;20409;-74
2022/10/06 12:51:03;;;;;;;5.38;4.68;;;17.00;79.10;;;;;;4997948;28;20061;-75
2022/10/06 12:53:38;;;;;;;9.25;5.30;;;17.00;79.20;;;;;;4997746;28;20440;-74
2022/10/06 12:56:13;;;;;;;8.98;5.05;;;16.90;78.90;;;;;;5001127;28;20094;-74
2022/10/06 12:58:39;;;;;;;10.18;5.97;;;16.90;79.10;;;;;;4999094;28;20454;-74
2022/10/06 13:01:10;;;;;;;7.43;5.50;;;16.90;79.10;;;;;;4998879;28;20121;-74
2022/10/06 13:03:37;;;;;;;6.80;5.35;;;16.90;79.10;;;;;;4981494;28;20061;-73
2022/10/06 13:06:05;;;;;;;9.57;5.20;;;16.90;79.10;;;;;;4999654;28;20465;-74
2022/10/06 13:08:36;;;;;;;8.73;5.70;;;16.90;79.10;;;;;;4981318;28;20050;-75
2022/10/06 13:11:12;;;;;;;9.82;5.30;;;17.00;79.20;;;;;;4998995;28;20086;-75
2022/10/06 13:13:45;;;;;;;9.18;5.47;;;16.90;79.20;;;;;;4999775;28;20038;-75
2022/10/06 13:16:13;;;;;;;5.88;4.55;;;16.90;79.20;;;;;;4995163;28;20096;-75
2022/10/06 13:18:39;;;;;;;7.95;5.20;;;17.00;79.30;;;;;;5083234;28;20026;-75
2022/10/06 13:21:13;;;;;;;8.63;5.18;;;16.90;79.30;;;;;;4998516;28;20038;-74
2022/10/06 13:23:39;;;;;;;5.68;4.60;;;16.90;79.40;;;;;;5000518;28;20095;-74
2022/10/06 13:26:14;;;;;;;5.43;4.53;;;16.90;79.30;;;;;;5001243;28;20117;-75
2022/10/06 13:28:43;;;;;;;4.97;4.45;;;17.00;79.50;;;;;;4982299;28;20472;-74
2022/10/06 13:31:30;;;;;;;6.25;4.40;;;16.90;79.40;;;;;;4997162;28;20534;-75